KAXA

Algona Municipal Airport

Algona, Iowa, USA
METAR KAXA 092135Z AUTO 19011KT 9SM CLR M04/M06 A3027 RMK AO2 PWINO
Observed Flight Rules
Dec-9 @ 21:35 UTC (23 minutes ago) Visual Flight Rules
Wind Visibility Clouds
190° at 11 knots 9 miles
  • Clear skies
Temperatures Readings
Current -4°C / 25°F
Dewpoint -6°C / 21°F
Humidity 86%
Altimeter 30.27" Hg
Pressure 1025 hPa
Elevation 372
METAR KAXA 092135Z AUTO 19011KT 9SM CLR M04/M06 A3027 RMK AO2 PWINO
Observed Flight Rules
Dec-9 @ 21:35 UTC
(23 minutes ago)
VFR
Wind Visibility
190° at 11 knots 9 miles
Clouds
  • Clear skies
Temperature Dewpoint
-4°C / 25°F -6°C / 21°F
Humidity Altimeter Pressure
86% 30.27" Hg 1025 hPa